createdAt,value
2022-08-26T00:01:58.142Z,23.60
2022-08-26T00:04:30.192Z,23.94
2022-08-26T00:06:58.010Z,24.11
2022-08-26T00:09:26.186Z,23.86
2022-08-26T00:11:53.970Z,23.83
2022-08-26T00:14:21.970Z,23.82
2022-08-26T00:16:52.140Z,23.50
2022-08-26T00:19:22.867Z,23.33
2022-08-26T00:21:51.274Z,23.54
2022-08-26T00:24:19.627Z,23.52
2022-08-26T00:26:47.278Z,22.97
2022-08-26T00:29:15.152Z,23.33
2022-08-26T00:31:42.992Z,23.36
2022-08-26T00:34:19.291Z,23.39
2022-08-26T00:36:49.211Z,23.59
2022-08-26T00:39:30.294Z,23.73
2022-08-26T00:41:58.051Z,23.80
2022-08-26T00:44:25.669Z,23.50
2022-08-26T00:46:56.232Z,23.00
2022-08-26T00:49:26.578Z,23.07
2022-08-26T00:52:00.896Z,23.16
2022-08-26T00:54:29.120Z,23.22
2022-08-26T00:57:04.208Z,23.25
2022-08-26T00:59:38.923Z,23.58
2022-08-26T01:02:21.338Z,23.88
2022-08-26T01:04:56.201Z,24.17
2022-08-26T01:07:24.815Z,23.70
2022-08-26T01:09:52.437Z,23.52
2022-08-26T01:12:22.017Z,23.73
2022-08-26T01:14:52.676Z,23.28
2022-08-26T01:17:20.265Z,23.21
2022-08-26T01:19:48.944Z,22.97
2022-08-26T01:22:19.924Z,22.93
2022-08-26T01:24:52.493Z,22.77
2022-08-26T01:27:24.365Z,22.46
2022-08-26T01:29:54.746Z,22.50
2022-08-26T01:32:22.550Z,22.67
2022-08-26T01:34:51.048Z,22.44
2022-08-26T01:37:19.882Z,22.63
2022-08-26T01:39:51.906Z,22.79
2022-08-26T01:42:20.572Z,22.61
2022-08-26T01:44:49.528Z,22.90
2022-08-26T01:47:17.624Z,22.86
2022-08-26T01:49:45.707Z,23.29
2022-08-26T01:52:13.861Z,23.49
2022-08-26T01:54:41.653Z,23.53
2022-08-26T01:57:16.224Z,23.47
2022-08-26T01:59:43.988Z,23.24
2022-08-26T02:02:12.223Z,23.31
2022-08-26T02:04:41.345Z,22.78
2022-08-26T02:07:10.370Z,21.84
2022-08-26T02:09:41.401Z,22.92
2022-08-26T02:12:09.795Z,23.06
2022-08-26T02:14:43.630Z,22.90
2022-08-26T02:17:15.960Z,23.45
2022-08-26T02:19:46.734Z,23.59
2022-08-26T02:22:16.310Z,23.17
2022-08-26T02:24:49.541Z,22.72
2022-08-26T02:27:17.577Z,22.71
2022-08-26T02:29:47.828Z,22.55
2022-08-26T02:32:18.644Z,22.44
2022-08-26T02:34:47.184Z,22.21
2022-08-26T02:37:15.230Z,22.12
2022-08-26T02:39:45.481Z,22.31
2022-08-26T02:42:18.408Z,22.41
2022-08-26T02:44:48.459Z,22.37
2022-08-26T02:47:16.447Z,22.62
2022-08-26T02:49:44.543Z,22.31
2022-08-26T02:52:14.964Z,22.28
2022-08-26T02:54:42.621Z,22.23
2022-08-26T02:57:12.259Z,22.33
2022-08-26T02:59:40.334Z,22.79
2022-08-26T03:02:10.749Z,22.97
2022-08-26T03:04:39.514Z,22.25
2022-08-26T03:07:07.542Z,22.36
2022-08-26T03:09:36.154Z,21.66
2022-08-26T03:12:04.812Z,21.85
2022-08-26T03:14:32.909Z,21.59
2022-08-26T03:17:01.179Z,21.72
2022-08-26T03:19:32.122Z,21.40
2022-08-26T03:22:02.934Z,20.86
2022-08-26T03:24:30.749Z,21.03
2022-08-26T03:26:59.914Z,20.86
2022-08-26T03:29:44.918Z,20.90
2022-08-26T03:32:17.570Z,21.22
2022-08-26T03:34:47.103Z,21.58
2022-08-26T03:37:14.787Z,21.50
2022-08-26T03:39:42.467Z,21.39
2022-08-26T03:42:12.740Z,21.42
2022-08-26T03:44:42.124Z,20.89
2022-08-26T03:47:09.878Z,21.08
2022-08-26T03:49:37.998Z,20.89
2022-08-26T03:52:07.663Z,20.89
2022-08-26T03:54:36.113Z,21.36
2022-08-26T03:57:04.008Z,21.58
2022-08-26T03:59:32.974Z,21.27
2022-08-26T04:02:01.683Z,21.12
2022-08-26T04:04:33.401Z,21.23
2022-08-26T04:07:01.239Z,21.13
2022-08-26T04:09:30.532Z,21.12
2022-08-26T04:12:04.316Z,21.43
2022-08-26T04:14:35.399Z,21.50
2022-08-26T04:17:07.031Z,21.05
2022-08-26T04:19:39.550Z,20.91
2022-08-26T04:22:07.718Z,21.06
2022-08-26T04:24:39.310Z,20.70
2022-08-26T04:27:08.162Z,20.64
2022-08-26T04:29:35.826Z,20.98
2022-08-26T04:32:04.195Z,20.79
2022-08-26T04:34:32.874Z,20.98
2022-08-26T04:37:01.430Z,21.70
2022-08-26T04:39:29.121Z,21.54
2022-08-26T04:41:58.261Z,21.36
2022-08-26T04:44:30.120Z,21.48
2022-08-26T04:46:58.469Z,21.33
2022-08-26T04:49:27.660Z,21.03
2022-08-26T04:51:56.195Z,20.47
2022-08-26T04:54:26.789Z,20.90
2022-08-26T04:56:55.097Z,21.50
2022-08-26T04:59:28.059Z,21.47
2022-08-26T05:01:59.584Z,21.53
2022-08-26T05:04:45.322Z,21.14
2022-08-26T05:07:13.517Z,21.12
2022-08-26T05:09:41.807Z,20.99
2022-08-26T05:12:09.824Z,21.02
2022-08-26T05:14:48.418Z,20.72
2022-08-26T05:17:16.105Z,21.04
2022-08-26T05:19:47.305Z,21.29
2022-08-26T05:22:16.937Z,20.83
2022-08-26T05:24:57.302Z,21.13
2022-08-26T05:27:27.296Z,20.83
2022-08-26T05:29:58.790Z,21.15
2022-08-26T05:32:26.559Z,21.42
2022-08-26T05:34:55.582Z,21.45
2022-08-26T05:37:26.526Z,21.13
2022-08-26T05:39:54.532Z,21.23
2022-08-26T05:42:22.289Z,21.67
2022-08-26T05:44:55.854Z,22.08
2022-08-26T05:47:25.658Z,22.08
2022-08-26T05:49:53.708Z,21.75
2022-08-26T05:52:24.643Z,21.65
2022-08-26T05:54:53.885Z,22.01
2022-08-26T05:57:25.857Z,21.78
2022-08-26T05:59:57.788Z,20.35
2022-08-26T06:02:29.451Z,21.88
2022-08-26T06:04:57.106Z,21.94
2022-08-26T06:07:45.368Z,21.99
2022-08-26T06:10:32.478Z,21.76
2022-08-26T06:13:04.610Z,22.18
2022-08-26T06:15:44.836Z,19.91
2022-08-26T06:18:15.089Z,22.33
2022-08-26T06:20:57.113Z,22.74
2022-08-26T06:23:42.409Z,23.26
2022-08-26T06:26:11.451Z,23.81
2022-08-26T06:28:39.080Z,24.21
2022-08-26T06:31:07.070Z,24.43
2022-08-26T06:33:38.362Z,24.47
2022-08-26T06:36:07.395Z,24.62
2022-08-26T06:38:36.499Z,24.68
2022-08-26T06:41:04.497Z,24.21
2022-08-26T06:43:32.275Z,23.56
2022-08-26T06:46:01.840Z,23.67
2022-08-26T06:48:33.444Z,23.31
2022-08-26T06:51:10.420Z,23.18
2022-08-26T06:53:38.530Z,23.69
2022-08-26T06:56:10.681Z,23.84
2022-08-26T06:58:39.934Z,23.80
2022-08-26T07:01:16.077Z,24.47
2022-08-26T07:03:46.625Z,24.93
2022-08-26T07:06:16.236Z,25.18
2022-08-26T07:08:44.651Z,25.55
2022-08-26T07:11:14.411Z,25.66
2022-08-26T07:13:42.618Z,25.66
2022-08-26T07:16:13.675Z,25.04
2022-08-26T07:18:44.783Z,24.90
2022-08-26T07:21:13.671Z,24.92
2022-08-26T07:23:43.466Z,25.06
2022-08-26T07:26:16.264Z,25.72
2022-08-26T07:28:50.537Z,25.91
2022-08-26T07:31:22.475Z,26.21
2022-08-26T07:33:50.279Z,26.45
2022-08-26T07:36:18.872Z,26.69
2022-08-26T07:38:49.161Z,26.29
2022-08-26T07:41:19.108Z,26.26
2022-08-26T07:43:47.520Z,26.30
2022-08-26T07:46:20.873Z,26.71
2022-08-26T07:48:55.398Z,26.63
2022-08-26T07:51:23.789Z,27.12
2022-08-26T07:53:55.599Z,27.22
2022-08-26T07:56:23.618Z,27.30
2022-08-26T07:58:55.210Z,27.54
2022-08-26T08:01:23.819Z,27.49
2022-08-26T08:03:52.208Z,27.52
2022-08-26T08:06:20.305Z,27.40
2022-08-26T08:08:51.670Z,27.33
2022-08-26T08:11:21.650Z,27.22
2022-08-26T08:13:49.941Z,27.39
2022-08-26T08:16:24.351Z,27.42
2022-08-26T08:18:52.221Z,27.78
2022-08-26T08:21:21.610Z,27.58
2022-08-26T08:23:55.406Z,27.72
2022-08-26T08:26:25.254Z,27.84
2022-08-26T08:28:54.449Z,27.85
2022-08-26T08:31:52.394Z,27.66
2022-08-26T08:34:15.039Z,27.61
2022-08-26T08:36:42.970Z,27.74
2022-08-26T08:39:11.684Z,27.74
2022-08-26T08:41:45.663Z,27.89
2022-08-26T08:44:18.396Z,27.87
2022-08-26T08:46:46.161Z,28.22
2022-08-26T08:49:13.891Z,28.13
2022-08-26T08:51:43.093Z,27.90
2022-08-26T08:54:11.473Z,28.07
2022-08-26T08:56:40.758Z,27.70
2022-08-26T08:59:14.343Z,27.62
2022-08-26T09:01:45.424Z,28.50
2022-08-26T09:04:20.591Z,28.92
2022-08-26T09:06:48.479Z,29.12
2022-08-26T09:09:17.963Z,29.31
2022-08-26T09:11:45.662Z,29.32
2022-08-26T09:14:15.444Z,29.26
2022-08-26T09:16:47.473Z,29.47
2022-08-26T09:19:19.039Z,29.58
2022-08-26T09:21:47.664Z,29.13
2022-08-26T09:24:28.857Z,29.21
2022-08-26T09:26:59.123Z,29.19
2022-08-26T09:29:32.147Z,29.41
2022-08-26T09:32:16.061Z,29.45
2022-08-26T09:34:54.850Z,28.69
2022-08-26T09:37:33.899Z,28.72
2022-08-26T09:40:12.866Z,28.57
2022-08-26T09:42:42.471Z,29.04
2022-08-26T09:45:14.064Z,29.16
2022-08-26T09:47:42.602Z,28.96
2022-08-26T09:50:13.004Z,29.02
2022-08-26T09:52:42.762Z,28.98
2022-08-26T09:55:14.817Z,29.14
2022-08-26T09:57:47.757Z,29.37
2022-08-26T10:00:30.492Z,29.17
2022-08-26T10:02:58.890Z,29.36
2022-08-26T10:05:33.982Z,29.46
2022-08-26T10:08:02.199Z,29.13
2022-08-26T10:10:33.740Z,29.07
2022-08-26T10:13:03.657Z,29.00
2022-08-26T10:15:34.884Z,29.06
2022-08-26T10:18:05.832Z,29.08
2022-08-26T10:20:34.186Z,28.76
2022-08-26T10:23:04.072Z,28.91
2022-08-26T10:25:33.605Z,28.62
2022-08-26T10:28:02.819Z,28.61
2022-08-26T10:30:31.647Z,28.99
2022-08-26T10:33:02.333Z,29.27
2022-08-26T10:35:32.983Z,29.53
2022-08-26T10:38:05.985Z,30.35
2022-08-26T10:40:37.044Z,30.13
2022-08-26T10:43:11.301Z,30.33
2022-08-26T10:45:41.514Z,30.11
2022-08-26T10:48:11.287Z,30.31
2022-08-26T10:50:39.838Z,30.11
2022-08-26T10:53:09.690Z,30.68
2022-08-26T10:55:40.381Z,30.68
2022-08-26T10:58:16.541Z,30.91
2022-08-26T11:01:13.483Z,30.24
2022-08-26T11:03:48.374Z,30.48
2022-08-26T11:06:24.757Z,30.42
2022-08-26T11:08:57.042Z,30.21
2022-08-26T11:11:39.633Z,30.31
2022-08-26T11:14:07.460Z,30.65
2022-08-26T11:16:43.304Z,30.77
2022-08-26T11:19:14.470Z,31.11
2022-08-26T11:21:50.693Z,30.81
2022-08-26T11:24:37.429Z,30.58
2022-08-26T11:27:07.715Z,30.93
2022-08-26T11:29:56.301Z,31.09
2022-08-26T11:32:25.914Z,31.77
2022-08-26T11:34:59.278Z,31.53
2022-08-26T11:37:32.377Z,31.02
2022-08-26T11:40:00.629Z,31.40
2022-08-26T11:42:34.704Z,31.31
2022-08-26T11:45:05.721Z,31.44
2022-08-26T11:47:34.162Z,31.42
2022-08-26T11:50:23.556Z,31.68
2022-08-26T11:52:56.447Z,32.03
2022-08-26T11:55:26.445Z,32.01
2022-08-26T11:57:56.024Z,32.05
2022-08-26T12:00:33.320Z,32.39
2022-08-26T12:03:05.301Z,33.01
2022-08-26T12:05:37.581Z,32.46
2022-08-26T12:08:09.803Z,32.84
2022-08-26T12:10:39.798Z,33.18
2022-08-26T12:13:08.114Z,33.38
2022-08-26T12:15:36.174Z,32.42
2022-08-26T12:18:20.787Z,32.45
2022-08-26T12:20:59.365Z,31.96
2022-08-26T12:23:29.491Z,32.29
2022-08-26T12:26:03.825Z,31.69
2022-08-26T12:28:31.770Z,31.22
2022-08-26T12:30:59.985Z,31.18
2022-08-26T12:33:28.689Z,30.69
2022-08-26T12:35:57.029Z,31.12
2022-08-26T12:38:24.961Z,31.40
2022-08-26T12:40:54.850Z,31.85
2022-08-26T12:43:42.307Z,32.17
2022-08-26T12:46:11.492Z,32.17
2022-08-26T12:48:39.947Z,31.59
2022-08-26T12:51:07.812Z,31.33
2022-08-26T12:53:36.216Z,31.31
2022-08-26T12:56:09.278Z,31.21
2022-08-26T12:58:37.408Z,31.16
2022-08-26T13:01:24.626Z,30.63
2022-08-26T13:03:52.555Z,31.14
2022-08-26T13:06:30.174Z,31.06
2022-08-26T13:08:58.694Z,30.34
2022-08-26T13:11:29.118Z,30.30
2022-08-26T13:13:57.827Z,30.15
2022-08-26T13:16:26.174Z,29.80
2022-08-26T13:18:55.768Z,28.35
2022-08-26T13:21:24.302Z,29.50
2022-08-26T13:23:54.274Z,29.17
2022-08-26T13:26:28.880Z,29.17
2022-08-26T13:29:02.114Z,29.08
2022-08-26T13:31:30.526Z,29.27
2022-08-26T13:33:58.192Z,29.48
2022-08-26T13:36:26.031Z,29.33
2022-08-26T13:38:55.111Z,29.34
2022-08-26T13:41:29.545Z,29.26
2022-08-26T13:43:59.455Z,29.39
2022-08-26T13:46:30.527Z,29.33
2022-08-26T13:48:58.585Z,29.57
2022-08-26T13:51:27.205Z,29.75
2022-08-26T13:53:54.961Z,29.70
2022-08-26T13:56:23.057Z,29.86
2022-08-26T13:58:53.056Z,30.10
2022-08-26T14:01:22.131Z,30.54
2022-08-26T14:03:52.941Z,30.26
2022-08-26T14:06:20.752Z,30.26
2022-08-26T14:08:49.467Z,29.78
2022-08-26T14:11:17.125Z,29.75
2022-08-26T14:13:44.741Z,29.66
2022-08-26T14:16:13.744Z,29.54
2022-08-26T14:18:47.291Z,29.86
2022-08-26T14:21:18.109Z,30.06
2022-08-26T14:23:46.352Z,30.09
2022-08-26T14:26:28.587Z,30.22
2022-08-26T14:28:59.165Z,30.25
2022-08-26T14:31:27.798Z,30.56
2022-08-26T14:33:57.536Z,30.69
2022-08-26T14:36:32.421Z,30.79
2022-08-26T14:39:04.727Z,30.75
2022-08-26T14:41:33.028Z,31.04
2022-08-26T14:44:06.265Z,29.79
2022-08-26T14:46:38.280Z,30.63
2022-08-26T14:49:10.703Z,30.53
2022-08-26T14:51:41.055Z,30.97
2022-08-26T14:54:16.297Z,31.91
2022-08-26T14:56:45.843Z,32.30
2022-08-26T14:59:13.644Z,32.43
2022-08-26T15:01:41.390Z,31.83
2022-08-26T15:04:10.892Z,30.96
2022-08-26T15:06:38.532Z,31.33
2022-08-26T15:09:06.284Z,30.66
2022-08-26T15:11:40.405Z,30.38
2022-08-26T15:14:08.668Z,28.59
2022-08-26T15:16:47.826Z,27.51
2022-08-26T15:19:17.815Z,26.99
2022-08-26T15:21:50.004Z,26.16
2022-08-26T15:24:26.535Z,25.48
2022-08-26T15:26:54.490Z,24.14
2022-08-26T15:29:23.812Z,23.52
2022-08-26T15:31:52.474Z,23.39
2022-08-26T15:34:26.994Z,22.54
2022-08-26T15:36:57.696Z,21.93
2022-08-26T15:39:25.919Z,21.78
2022-08-26T15:41:56.015Z,21.72
2022-08-26T15:44:23.855Z,21.93
2022-08-26T15:46:55.342Z,22.14
2022-08-26T15:49:29.782Z,21.95
2022-08-26T15:51:57.594Z,22.06
2022-08-26T15:54:27.565Z,22.60
2022-08-26T15:56:59.385Z,22.97
2022-08-26T15:59:27.021Z,23.00
2022-08-26T16:01:56.287Z,23.06
2022-08-26T16:04:24.177Z,22.65
2022-08-26T16:06:53.613Z,22.49
2022-08-26T16:09:24.287Z,22.27
2022-08-26T16:11:54.862Z,22.49
2022-08-26T16:14:22.980Z,22.60
2022-08-26T16:16:50.715Z,21.92
2022-08-26T16:19:18.958Z,21.94
2022-08-26T16:21:46.665Z,21.94
2022-08-26T16:24:17.502Z,21.61
2022-08-26T16:26:45.260Z,21.51
2022-08-26T16:29:16.496Z,21.58
2022-08-26T16:31:47.558Z,21.29
2022-08-26T16:34:17.262Z,21.20
2022-08-26T16:36:45.957Z,21.22
2022-08-26T16:39:16.265Z,21.76
2022-08-26T16:41:44.249Z,21.81
2022-08-26T16:44:12.559Z,22.14
2022-08-26T16:46:41.187Z,22.22
2022-08-26T16:49:15.043Z,22.19
2022-08-26T16:51:42.956Z,22.35
2022-08-26T16:54:12.701Z,22.65
2022-08-26T16:56:41.672Z,22.56
2022-08-26T16:59:12.577Z,22.71
2022-08-26T17:01:40.452Z,22.74
2022-08-26T17:04:13.859Z,22.77
2022-08-26T17:06:41.558Z,22.67
2022-08-26T17:09:09.491Z,22.20
2022-08-26T17:11:37.427Z,22.41
2022-08-26T17:14:06.977Z,22.58
2022-08-26T17:16:36.789Z,23.20
2022-08-26T17:19:07.786Z,23.17
2022-08-26T17:21:36.680Z,22.71
2022-08-26T17:24:04.560Z,22.22
2022-08-26T17:26:32.269Z,21.97
2022-08-26T17:29:01.290Z,21.87
2022-08-26T17:31:30.732Z,21.50
2022-08-26T17:33:58.490Z,21.59
2022-08-26T17:36:27.850Z,21.81
2022-08-26T17:38:56.579Z,21.94
2022-08-26T17:41:24.621Z,22.03
2022-08-26T17:43:55.160Z,21.93
2022-08-26T17:46:26.178Z,21.72
2022-08-26T17:48:56.805Z,21.91
2022-08-26T17:51:25.065Z,22.31
2022-08-26T17:53:53.577Z,21.69
2022-08-26T17:56:23.992Z,21.66
2022-08-26T17:58:56.938Z,21.71
2022-08-26T18:01:27.388Z,21.11
2022-08-26T18:04:00.463Z,21.48
2022-08-26T18:06:28.947Z,21.39
2022-08-26T18:08:56.950Z,21.49
2022-08-26T18:11:33.926Z,21.77
2022-08-26T18:14:01.999Z,22.15
2022-08-26T18:16:34.189Z,21.53
2022-08-26T18:19:03.696Z,21.06
2022-08-26T18:21:31.382Z,20.97
2022-08-26T18:23:59.100Z,20.81
2022-08-26T18:26:27.773Z,21.19
2022-08-26T18:28:55.387Z,21.75
2022-08-26T18:31:30.307Z,21.91
2022-08-26T18:33:59.837Z,21.78
2022-08-26T18:36:31.298Z,21.74
2022-08-26T18:39:01.369Z,21.72
2022-08-26T18:41:35.631Z,21.92
2022-08-26T18:44:03.585Z,22.19
2022-08-26T18:46:31.376Z,22.04
2022-08-26T18:48:59.099Z,20.86
2022-08-26T18:51:29.555Z,20.77
2022-08-26T18:53:58.686Z,20.93
2022-08-26T18:56:26.360Z,21.23
2022-08-26T18:58:54.381Z,21.93
2022-08-26T19:01:26.657Z,21.91
2022-08-26T19:03:55.197Z,22.24
2022-08-26T19:06:24.249Z,22.19
2022-08-26T19:08:54.173Z,21.98
2022-08-26T19:11:31.578Z,22.13
2022-08-26T19:14:01.422Z,22.39
2022-08-26T19:16:29.494Z,22.40
2022-08-26T19:18:58.974Z,22.16
2022-08-26T19:21:26.989Z,22.48
2022-08-26T19:23:57.201Z,22.56
2022-08-26T19:26:26.840Z,22.71
2022-08-26T19:28:57.444Z,22.42
2022-08-26T19:31:27.682Z,22.50
2022-08-26T19:33:56.713Z,22.69
2022-08-26T19:36:24.999Z,22.68
2022-08-26T19:38:52.992Z,22.64
2022-08-26T19:41:21.482Z,21.96
2022-08-26T19:43:50.552Z,21.61
2022-08-26T19:46:19.951Z,21.79
2022-08-26T19:48:47.988Z,22.49
2022-08-26T19:51:17.012Z,22.85
2022-08-26T19:53:45.252Z,23.04
2022-08-26T19:56:13.029Z,23.29
2022-08-26T19:58:40.686Z,23.38
2022-08-26T20:01:10.360Z,23.06
2022-08-26T20:03:40.935Z,23.15
2022-08-26T20:06:09.390Z,23.17
2022-08-26T20:08:37.747Z,22.93
2022-08-26T20:11:20.072Z,22.66
2022-08-26T20:13:48.519Z,22.89
2022-08-26T20:16:20.825Z,23.08
2022-08-26T20:19:06.006Z,22.83
2022-08-26T20:21:35.921Z,22.66
2022-08-26T20:24:10.550Z,23.14
2022-08-26T20:26:41.573Z,23.11
2022-08-26T20:29:09.679Z,23.26
2022-08-26T20:31:41.073Z,23.08
2022-08-26T20:34:11.121Z,23.36
2022-08-26T20:36:39.232Z,23.37
2022-08-26T20:39:07.375Z,22.85
2022-08-26T20:41:35.582Z,22.72
2022-08-26T20:44:03.649Z,22.53
2022-08-26T20:46:31.670Z,22.44
2022-08-26T20:49:03.581Z,22.15
2022-08-26T20:51:33.699Z,21.84
2022-08-26T20:54:01.478Z,21.31
2022-08-26T20:56:29.243Z,21.46
2022-08-26T20:58:58.700Z,22.06
2022-08-26T21:01:31.053Z,22.81
2022-08-26T21:03:59.081Z,22.77
2022-08-26T21:06:32.835Z,22.83
2022-08-26T21:09:03.969Z,22.38
2022-08-26T21:11:31.788Z,22.98
2022-08-26T21:14:16.650Z,22.48
2022-08-26T21:16:45.216Z,22.33
2022-08-26T21:19:17.717Z,22.83
2022-08-26T21:21:46.857Z,22.85
2022-08-26T21:24:17.080Z,22.35
2022-08-26T21:26:46.322Z,22.84
2022-08-26T21:29:16.153Z,22.83
2022-08-26T21:31:46.379Z,23.05
2022-08-26T21:34:14.711Z,23.06
2022-08-26T21:36:44.801Z,22.80
2022-08-26T21:39:16.346Z,22.83
2022-08-26T21:41:46.880Z,23.15
2022-08-26T21:44:14.903Z,23.23
2022-08-26T21:46:42.743Z,22.98
2022-08-26T21:49:11.826Z,22.64
2022-08-26T21:51:41.100Z,22.58
2022-08-26T21:54:11.319Z,22.33
2022-08-26T21:56:41.401Z,22.47
2022-08-26T21:59:09.386Z,22.74
2022-08-26T22:01:39.326Z,22.90
2022-08-26T22:04:08.032Z,22.63
2022-08-26T22:06:37.437Z,21.82
2022-08-26T22:09:05.443Z,21.95
2022-08-26T22:11:35.408Z,22.15
2022-08-26T22:14:20.541Z,22.63
2022-08-26T22:16:50.522Z,22.30
2022-08-26T22:19:20.029Z,22.77
2022-08-26T22:21:49.501Z,22.35
2022-08-26T22:24:17.378Z,21.60
2022-08-26T22:26:45.411Z,21.89
2022-08-26T22:29:13.469Z,21.90
2022-08-26T22:31:42.091Z,21.47
2022-08-26T22:34:12.034Z,21.45
2022-08-26T22:36:43.654Z,20.76
2022-08-26T22:39:12.386Z,21.50
2022-08-26T22:41:40.886Z,20.79
2022-08-26T22:44:08.793Z,21.02
2022-08-26T22:46:38.418Z,20.87
2022-08-26T22:49:06.484Z,20.97
2022-08-26T22:51:35.749Z,20.81
2022-08-26T22:54:09.689Z,13.93
2022-08-26T22:56:40.224Z,20.66
2022-08-26T22:59:08.670Z,20.91
2022-08-26T23:01:37.338Z,21.19
2022-08-26T23:04:06.370Z,20.79
2022-08-26T23:06:36.811Z,21.11
2022-08-26T23:09:05.141Z,21.13
2022-08-26T23:11:33.092Z,20.99
2022-08-26T23:14:02.293Z,20.46
2022-08-26T23:16:39.339Z,20.64
2022-08-26T23:19:07.469Z,20.79
2022-08-26T23:21:36.608Z,20.68
2022-08-26T23:24:04.900Z,20.74
2022-08-26T23:26:33.163Z,20.33
2022-08-26T23:29:00.852Z,20.46
2022-08-26T23:31:28.567Z,20.24
2022-08-26T23:34:13.811Z,20.41
2022-08-26T23:36:44.114Z,20.21
2022-08-26T23:39:14.784Z,20.31
2022-08-26T23:41:49.389Z,20.15
2022-08-26T23:44:17.260Z,20.66
2022-08-26T23:46:44.916Z,20.29
2022-08-26T23:49:12.827Z,20.45
2022-08-26T23:51:58.057Z,20.68
2022-08-26T23:54:29.276Z,20.84
2022-08-26T23:56:56.939Z,21.34
2022-08-26T23:59:24.589Z,20.89
